IAC weather

La Quiaca Airport
La Quiaca, Jujuy Province, Argentina

Public forecast

Using degrees Celsius for public forecast. Weather courtesy of forecast.io.

Closest aviation weather report (METAR) to La Quiaca Airport

Report is more than 2 hours old.

Closest report is Capitan Oriel Lea Plaza Airport, 60.5 nm (112.0 km) NE. Retrieved 2019/10/20 00:00 UTC (5 hours ago):

SLTJ 200000Z 12003KT 5000 -DZ SCT007 BKN018 OVC070 11/09 Q1021

Closest aviation forecast (TAF) to La Quiaca Airport

Closest forecast is Capitan Oriel Lea Plaza Airport, 60.5 nm (112.0 km) NE. Retrieved 2019-10-20 00:12 UTC (5 hours ago):

TAF SLTJ 192200Z 2000/2024 14010KT 9999 BKN023 OVC070 TX25/2019Z TN10/2011Z BECMG 2002/2004 00000KT PROB30 TEMPO 2004/2006 6000 RA BKN015 OVC070 BECMG 2014/2016 15010KT SCT027 BKN070 TEMPO 2019/2021 8000 SHRA FEW036CB